Terminal Aerodrome Forecast
Issued by NWS

Home | Current Version | Previous Version | Text Only | Print | Product List | Glossary On
Versions: 1 2 3 4 5 6 7 8 9 10 11 12 13 14 15 16 17 18
000
FTUS42 KTAE 021700
TAFECP
TAF
KECP 021740Z 0218/0318 00000KT P6SM BKN008 OVC110
     FM022200 15003KT P6SM SCT010 BKN120
     FM030200 18003KT P6SM BKN020
     FM031000 00000KT 1SM BR OVC004
     FM031600 13005KT P6SM OVC008=

USA.gov is the U.S. government's official web portal to all federal, state and local government web resources and services.